sensor_id;sensor_type;location;lat;lon;timestamp;P1;durP1;ratioP1;P2;durP2;ratioP2
74670;SDS011;63196;39.564;2.628;2023-04-28T11:41:24;5.80;;;1.30;;
74670;SDS011;63196;39.564;2.628;2023-04-28T11:43:50;6.60;;;1.30;;
74670;SDS011;63196;39.564;2.628;2023-04-28T11:46:17;3.00;;;0.80;;
74670;SDS011;63196;39.564;2.628;2023-04-28T11:48:43;9.00;;;1.20;;
74670;SDS011;63196;39.564;2.628;2023-04-28T11:51:09;3.30;;;1.00;;
74670;SDS011;63196;39.564;2.628;2023-04-28T11:53:45;3.00;;;1.00;;
74670;SDS011;63196;39.564;2.628;2023-04-28T11:56:10;3.70;;;0.80;;
74670;SDS011;63196;39.564;2.628;2023-04-28T11:58:38;3.00;;;1.00;;
74670;SDS011;63196;39.564;2.628;2023-04-28T12:01:10;2.70;;;1.00;;
74670;SDS011;63196;39.564;2.628;2023-04-28T12:03:42;4.00;;;1.20;;
74670;SDS011;63196;39.564;2.628;2023-04-28T12:06:11;3.30;;;0.90;;
74670;SDS011;63196;39.564;2.628;2023-04-28T12:08:36;4.80;;;1.00;;
74670;SDS011;63196;39.564;2.628;2023-04-28T12:11:09;4.80;;;1.00;;
74670;SDS011;63196;39.564;2.628;2023-04-28T12:13:35;3.30;;;1.10;;
74670;SDS011;63196;39.564;2.628;2023-04-28T12:16:03;2.90;;;1.00;;
74670;SDS011;63196;39.564;2.628;2023-04-28T12:18:30;3.20;;;1.00;;
74670;SDS011;63196;39.564;2.628;2023-04-28T12:20:56;5.70;;;0.90;;
74670;SDS011;63196;39.564;2.628;2023-04-28T12:23:34;3.00;;;1.00;;
74670;SDS011;63196;39.564;2.628;2023-04-28T12:28:35;3.50;;;1.20;;
74670;SDS011;63196;39.564;2.628;2023-04-28T12:31:05;2.70;;;1.00;;
74670;SDS011;63196;39.564;2.628;2023-04-28T12:33:33;3.00;;;1.10;;
74670;SDS011;63196;39.564;2.628;2023-04-28T12:36:01;6.50;;;1.20;;
74670;SDS011;63196;39.564;2.628;2023-04-28T12:38:27;5.60;;;1.10;;
74670;SDS011;63196;39.564;2.628;2023-04-28T12:40:53;5.00;;;1.10;;
74670;SDS011;63196;39.564;2.628;2023-04-28T12:43:19;2.80;;;1.00;;
74670;SDS011;63196;39.564;2.628;2023-04-28T12:45:47;5.60;;;1.30;;
74670;SDS011;63196;39.564;2.628;2023-04-28T12:48:13;3.20;;;1.20;;
74670;SDS011;63196;39.564;2.628;2023-04-28T12:50:38;3.50;;;1.10;;
74670;SDS011;63196;39.564;2.628;2023-04-28T12:53:04;4.30;;;1.80;;
74670;SDS011;63196;39.564;2.628;2023-04-28T12:55:29;3.10;;;1.20;;
74670;SDS011;63196;39.564;2.628;2023-04-28T12:57:54;2.70;;;1.00;;
74670;SDS011;63196;39.564;2.628;2023-04-28T13:00:20;6.90;;;1.40;;
74670;SDS011;63196;39.564;2.628;2023-04-28T13:02:47;4.80;;;1.30;;
74670;SDS011;63196;39.564;2.628;2023-04-28T13:05:13;3.40;;;1.10;;
74670;SDS011;63196;39.564;2.628;2023-04-28T13:07:38;4.60;;;1.40;;
74670;SDS011;63196;39.564;2.628;2023-04-28T13:10:04;4.00;;;1.30;;
74670;SDS011;63196;39.564;2.628;2023-04-28T13:12:30;6.30;;;1.20;;
74670;SDS011;63196;39.564;2.628;2023-04-28T13:14:57;3.70;;;1.40;;
74670;SDS011;63196;39.564;2.628;2023-04-28T13:17:22;6.10;;;1.30;;
74670;SDS011;63196;39.564;2.628;2023-04-28T13:19:48;5.00;;;1.30;;
74670;SDS011;63196;39.564;2.628;2023-04-28T13:22:13;7.30;;;1.20;;
74670;SDS011;63196;39.564;2.628;2023-04-28T13:24:39;6.50;;;1.50;;
74670;SDS011;63196;39.564;2.628;2023-04-28T13:27:05;3.40;;;0.90;;
74670;SDS011;63196;39.564;2.628;2023-04-28T13:29:34;4.90;;;1.10;;
74670;SDS011;63196;39.564;2.628;2023-04-28T13:32:00;7.40;;;1.20;;
74670;SDS011;63196;39.564;2.628;2023-04-28T13:34:26;7.80;;;1.40;;
74670;SDS011;63196;39.564;2.628;2023-04-28T13:36:52;6.50;;;1.20;;
74670;SDS011;63196;39.564;2.628;2023-04-28T13:39:19;3.90;;;1.10;;
74670;SDS011;63196;39.564;2.628;2023-04-28T13:41:46;4.90;;;1.10;;
74670;SDS011;63196;39.564;2.628;2023-04-28T13:44:11;3.60;;;1.00;;
74670;SDS011;63196;39.564;2.628;2023-04-28T13:46:37;4.30;;;0.90;;
74670;SDS011;63196;39.564;2.628;2023-04-28T13:49:02;7.80;;;1.10;;
74670;SDS011;63196;39.564;2.628;2023-04-28T13:51:29;5.90;;;1.20;;
74670;SDS011;63196;39.564;2.628;2023-04-28T13:53:57;3.80;;;1.10;;
74670;SDS011;63196;39.564;2.628;2023-04-28T13:56:22;3.80;;;1.10;;
74670;SDS011;63196;39.564;2.628;2023-04-28T13:58:48;3.40;;;0.80;;
74670;SDS011;63196;39.564;2.628;2023-04-28T14:01:13;3.20;;;0.90;;
74670;SDS011;63196;39.564;2.628;2023-04-28T14:03:39;4.50;;;1.00;;
74670;SDS011;63196;39.564;2.628;2023-04-28T14:06:05;3.80;;;1.30;;
74670;SDS011;63196;39.564;2.628;2023-04-28T14:08:31;4.60;;;0.90;;
74670;SDS011;63196;39.564;2.628;2023-04-28T14:10:57;5.60;;;1.10;;
74670;SDS011;63196;39.564;2.628;2023-04-28T14:13:22;2.40;;;0.80;;
74670;SDS011;63196;39.564;2.628;2023-04-28T14:15:52;4.00;;;1.20;;
74670;SDS011;63196;39.564;2.628;2023-04-28T14:18:18;4.00;;;0.90;;
74670;SDS011;63196;39.564;2.628;2023-04-28T14:20:43;3.60;;;1.10;;
74670;SDS011;63196;39.564;2.628;2023-04-28T14:23:09;2.90;;;0.90;;
74670;SDS011;63196;39.564;2.628;2023-04-28T14:25:34;5.30;;;0.90;;
74670;SDS011;63196;39.564;2.628;2023-04-28T14:30:26;6.00;;;0.80;;
74670;SDS011;63196;39.564;2.628;2023-04-28T14:32:52;3.50;;;0.80;;
74670;SDS011;63196;39.564;2.628;2023-04-28T14:35:17;2.70;;;0.80;;
74670;SDS011;63196;39.564;2.628;2023-04-28T14:37:45;4.10;;;0.90;;
74670;SDS011;63196;39.564;2.628;2023-04-28T14:40:10;4.20;;;0.90;;
74670;SDS011;63196;39.564;2.628;2023-04-28T14:42:36;4.10;;;1.00;;
74670;SDS011;63196;39.564;2.628;2023-04-28T14:45:07;4.00;;;0.90;;
74670;SDS011;63196;39.564;2.628;2023-04-28T14:47:33;4.40;;;1.10;;
74670;SDS011;63196;39.564;2.628;2023-04-28T14:49:59;2.70;;;0.70;;
74670;SDS011;63196;39.564;2.628;2023-04-28T14:52:24;6.00;;;1.00;;
74670;SDS011;63196;39.564;2.628;2023-04-28T14:54:55;6.40;;;1.00;;
74670;SDS011;63196;39.564;2.628;2023-04-28T14:57:20;4.10;;;0.90;;
74670;SDS011;63196;39.564;2.628;2023-04-28T14:59:46;2.90;;;0.70;;
74670;SDS011;63196;39.564;2.628;2023-04-28T15:02:12;3.80;;;0.90;;
74670;SDS011;63196;39.564;2.628;2023-04-28T15:04:37;4.60;;;1.00;;
74670;SDS011;63196;39.564;2.628;2023-04-28T15:07:04;7.10;;;1.00;;
74670;SDS011;63196;39.564;2.628;2023-04-28T15:11:56;3.90;;;0.90;;
74670;SDS011;63196;39.564;2.628;2023-04-28T15:14:22;4.50;;;1.00;;
74670;SDS011;63196;39.564;2.628;2023-04-28T15:16:47;3.00;;;0.80;;
74670;SDS011;63196;39.564;2.628;2023-04-28T15:19:12;4.10;;;1.00;;
74670;SDS011;63196;39.564;2.628;2023-04-28T15:21:38;3.70;;;0.80;;
74670;SDS011;63196;39.564;2.628;2023-04-28T15:24:04;3.80;;;0.60;;
74670;SDS011;63196;39.564;2.628;2023-04-28T15:26:30;2.80;;;0.80;;
74670;SDS011;63196;39.564;2.628;2023-04-28T15:28:55;3.10;;;0.70;;
74670;SDS011;63196;39.564;2.628;2023-04-28T15:31:21;3.10;;;0.80;;
74670;SDS011;63196;39.564;2.628;2023-04-28T15:33:50;3.50;;;1.00;;
74670;SDS011;63196;39.564;2.628;2023-04-28T15:36:16;7.60;;;1.20;;
74670;SDS011;63196;39.564;2.628;2023-04-28T15:38:44;4.40;;;0.80;;
74670;SDS011;63196;39.564;2.628;2023-04-28T15:41:12;4.00;;;0.90;;
74670;SDS011;63196;39.564;2.628;2023-04-28T15:43:39;3.90;;;1.00;;
74670;SDS011;63196;39.564;2.628;2023-04-28T15:46:04;3.30;;;0.80;;
74670;SDS011;63196;39.564;2.628;2023-04-28T15:48:33;6.10;;;0.90;;
74670;SDS011;63196;39.564;2.628;2023-04-28T15:50:59;6.30;;;0.90;;
74670;SDS011;63196;39.564;2.628;2023-04-28T15:53:24;3.00;;;1.00;;
74670;SDS011;63196;39.564;2.628;2023-04-28T15:55:50;4.20;;;0.80;;
74670;SDS011;63196;39.564;2.628;2023-04-28T15:58:15;4.20;;;1.00;;
74670;SDS011;63196;39.564;2.628;2023-04-28T16:00:41;4.00;;;1.40;;
74670;SDS011;63196;39.564;2.628;2023-04-28T16:03:08;7.30;;;1.20;;
74670;SDS011;63196;39.564;2.628;2023-04-28T16:05:34;6.70;;;1.00;;
74670;SDS011;63196;39.564;2.628;2023-04-28T16:07:59;3.10;;;0.80;;
74670;SDS011;63196;39.564;2.628;2023-04-28T16:10:25;2.70;;;0.80;;
74670;SDS011;63196;39.564;2.628;2023-04-28T16:12:50;2.80;;;1.10;;
74670;SDS011;63196;39.564;2.628;2023-04-28T16:15:16;3.30;;;0.80;;
74670;SDS011;63196;39.564;2.628;2023-04-28T16:17:41;6.00;;;1.10;;
74670;SDS011;63196;39.564;2.628;2023-04-28T16:27:30;2.30;;;0.80;;
74670;SDS011;63196;39.564;2.628;2023-04-28T16:29:56;2.50;;;0.80;;
74670;SDS011;63196;39.564;2.628;2023-04-28T16:32:22;2.40;;;0.80;;
74670;SDS011;63196;39.564;2.628;2023-04-28T16:34:47;5.30;;;1.10;;
74670;SDS011;63196;39.564;2.628;2023-04-28T16:37:13;2.10;;;0.70;;
74670;SDS011;63196;39.564;2.628;2023-04-28T16:39:38;6.00;;;1.00;;
74670;SDS011;63196;39.564;2.628;2023-04-28T16:42:04;3.20;;;0.90;;
74670;SDS011;63196;39.564;2.628;2023-04-28T16:44:30;2.90;;;0.90;;
74670;SDS011;63196;39.564;2.628;2023-04-28T16:46:56;6.50;;;0.80;;
74670;SDS011;63196;39.564;2.628;2023-04-28T16:49:22;2.00;;;0.60;;
74670;SDS011;63196;39.564;2.628;2023-04-28T16:51:57;1.90;;;0.80;;
74670;SDS011;63196;39.564;2.628;2023-04-28T16:54:26;5.30;;;0.80;;
74670;SDS011;63196;39.564;2.628;2023-04-28T16:56:59;5.30;;;1.20;;
74670;SDS011;63196;39.564;2.628;2023-04-28T16:59:25;3.80;;;0.90;;
74670;SDS011;63196;39.564;2.628;2023-04-28T17:01:53;3.40;;;0.90;;
74670;SDS011;63196;39.564;2.628;2023-04-28T17:04:19;2.20;;;0.80;;
74670;SDS011;63196;39.564;2.628;2023-04-28T17:06:45;3.20;;;0.80;;
74670;SDS011;63196;39.564;2.628;2023-04-28T17:09:10;3.60;;;1.00;;
74670;SDS011;63196;39.564;2.628;2023-04-28T17:11:36;4.00;;;0.90;;
74670;SDS011;63196;39.564;2.628;2023-04-28T17:14:05;3.80;;;0.70;;
74670;SDS011;63196;39.564;2.628;2023-04-28T17:16:31;3.40;;;1.00;;
74670;SDS011;63196;39.564;2.628;2023-04-28T17:18:57;2.60;;;0.90;;
74670;SDS011;63196;39.564;2.628;2023-04-28T17:21:23;3.80;;;0.80;;
74670;SDS011;63196;39.564;2.628;2023-04-28T17:23:50;3.60;;;1.10;;
74670;SDS011;63196;39.564;2.628;2023-04-28T17:26:16;2.70;;;0.80;;
74670;SDS011;63196;39.564;2.628;2023-04-28T17:28:41;3.80;;;0.80;;
74670;SDS011;63196;39.564;2.628;2023-04-28T17:31:08;3.40;;;1.10;;
74670;SDS011;63196;39.564;2.628;2023-04-28T17:33:33;2.50;;;1.00;;
74670;SDS011;63196;39.564;2.628;2023-04-28T17:36:00;2.90;;;1.00;;
74670;SDS011;63196;39.564;2.628;2023-04-28T17:38:26;4.40;;;1.10;;
74670;SDS011;63196;39.564;2.628;2023-04-28T17:40:51;3.00;;;1.20;;
74670;SDS011;63196;39.564;2.628;2023-04-28T17:43:16;2.80;;;1.00;;
74670;SDS011;63196;39.564;2.628;2023-04-28T17:48:09;3.20;;;0.80;;
74670;SDS011;63196;39.564;2.628;2023-04-28T17:50:36;5.40;;;1.40;;
74670;SDS011;63196;39.564;2.628;2023-04-28T17:53:01;7.10;;;1.60;;
74670;SDS011;63196;39.564;2.628;2023-04-28T17:55:27;5.30;;;2.10;;
74670;SDS011;63196;39.564;2.628;2023-04-28T17:57:52;4.40;;;1.00;;
74670;SDS011;63196;39.564;2.628;2023-04-28T18:00:18;3.90;;;1.10;;
74670;SDS011;63196;39.564;2.628;2023-04-28T18:02:43;6.90;;;1.10;;
74670;SDS011;63196;39.564;2.628;2023-04-28T18:05:08;4.50;;;1.30;;
74670;SDS011;63196;39.564;2.628;2023-04-28T18:07:34;3.20;;;0.90;;
74670;SDS011;63196;39.564;2.628;2023-04-28T18:09:59;2.40;;;0.90;;
74670;SDS011;63196;39.564;2.628;2023-04-28T18:12:25;3.20;;;1.10;;
74670;SDS011;63196;39.564;2.628;2023-04-28T18:14:50;3.80;;;0.90;;
74670;SDS011;63196;39.564;2.628;2023-04-28T18:17:16;3.60;;;0.90;;
74670;SDS011;63196;39.564;2.628;2023-04-28T18:19:41;3.40;;;0.80;;
74670;SDS011;63196;39.564;2.628;2023-04-28T18:22:07;4.30;;;0.90;;
74670;SDS011;63196;39.564;2.628;2023-04-28T18:24:32;2.70;;;0.90;;
74670;SDS011;63196;39.564;2.628;2023-04-28T18:26:58;4.40;;;0.90;;
74670;SDS011;63196;39.564;2.628;2023-04-28T18:29:23;4.60;;;1.00;;
74670;SDS011;63196;39.564;2.628;2023-04-28T18:31:49;2.40;;;0.90;;
74670;SDS011;63196;39.564;2.628;2023-04-28T18:34:14;2.70;;;0.80;;
74670;SDS011;63196;39.564;2.628;2023-04-28T18:36:40;2.90;;;0.70;;
74670;SDS011;63196;39.564;2.628;2023-04-28T18:39:05;3.40;;;0.80;;
74670;SDS011;63196;39.564;2.628;2023-04-28T18:41:31;4.00;;;1.00;;
74670;SDS011;63196;39.564;2.628;2023-04-28T18:43:58;3.30;;;1.10;;
74670;SDS011;63196;39.564;2.628;2023-04-28T18:46:23;2.30;;;0.90;;
74670;SDS011;63196;39.564;2.628;2023-04-28T18:48:49;3.20;;;1.00;;
74670;SDS011;63196;39.564;2.628;2023-04-28T18:51:15;5.40;;;1.20;;
74670;SDS011;63196;39.564;2.628;2023-04-28T18:53:41;3.20;;;1.00;;
74670;SDS011;63196;39.564;2.628;2023-04-28T18:56:06;3.50;;;1.20;;
74670;SDS011;63196;39.564;2.628;2023-04-28T18:58:32;4.30;;;1.10;;
74670;SDS011;63196;39.564;2.628;2023-04-28T19:00:57;3.70;;;1.10;;
74670;SDS011;63196;39.564;2.628;2023-04-28T19:03:22;3.10;;;1.50;;
74670;SDS011;63196;39.564;2.628;2023-04-28T19:05:48;3.50;;;1.60;;
74670;SDS011;63196;39.564;2.628;2023-04-28T19:08:13;5.90;;;1.90;;
74670;SDS011;63196;39.564;2.628;2023-04-28T19:10:39;6.10;;;1.40;;
74670;SDS011;63196;39.564;2.628;2023-04-28T19:13:05;3.30;;;1.40;;
74670;SDS011;63196;39.564;2.628;2023-04-28T19:15:30;6.00;;;2.00;;
74670;SDS011;63196;39.564;2.628;2023-04-28T19:17:57;4.20;;;1.80;;
74670;SDS011;63196;39.564;2.628;2023-04-28T19:20:23;6.00;;;1.70;;
74670;SDS011;63196;39.564;2.628;2023-04-28T19:22:49;8.00;;;2.60;;
74670;SDS011;63196;39.564;2.628;2023-04-28T19:25:14;5.70;;;2.20;;
74670;SDS011;63196;39.564;2.628;2023-04-28T19:27:40;6.70;;;2.40;;
74670;SDS011;63196;39.564;2.628;2023-04-28T19:30:08;4.20;;;2.30;;
74670;SDS011;63196;39.564;2.628;2023-04-28T19:32:34;4.70;;;1.90;;
74670;SDS011;63196;39.564;2.628;2023-04-28T19:35:00;5.60;;;2.30;;
74670;SDS011;63196;39.564;2.628;2023-04-28T19:37:26;4.20;;;2.30;;
74670;SDS011;63196;39.564;2.628;2023-04-28T19:39:52;4.40;;;1.80;;
74670;SDS011;63196;39.564;2.628;2023-04-28T19:42:17;4.70;;;2.10;;
74670;SDS011;63196;39.564;2.628;2023-04-28T19:44:46;4.40;;;1.70;;
74670;SDS011;63196;39.564;2.628;2023-04-28T19:47:20;4.10;;;1.80;;
74670;SDS011;63196;39.564;2.628;2023-04-28T19:49:46;3.90;;;1.20;;
74670;SDS011;63196;39.564;2.628;2023-04-28T19:52:12;5.40;;;1.30;;
74670;SDS011;63196;39.564;2.628;2023-04-28T19:54:37;4.30;;;1.80;;
74670;SDS011;63196;39.564;2.628;2023-04-28T19:57:07;3.90;;;1.80;;
74670;SDS011;63196;39.564;2.628;2023-04-28T19:59:36;5.20;;;1.70;;
74670;SDS011;63196;39.564;2.628;2023-04-28T20:02:04;6.90;;;1.90;;
74670;SDS011;63196;39.564;2.628;2023-04-28T20:04:38;8.70;;;2.00;;
74670;SDS011;63196;39.564;2.628;2023-04-28T20:07:04;4.30;;;1.70;;
74670;SDS011;63196;39.564;2.628;2023-04-28T20:09:33;3.20;;;1.40;;
74670;SDS011;63196;39.564;2.628;2023-04-28T20:11:59;3.40;;;1.40;;
74670;SDS011;63196;39.564;2.628;2023-04-28T20:14:28;6.00;;;1.60;;
74670;SDS011;63196;39.564;2.628;2023-04-28T20:16:53;5.90;;;1.40;;
74670;SDS011;63196;39.564;2.628;2023-04-28T20:19:19;4.10;;;1.50;;
74670;SDS011;63196;39.564;2.628;2023-04-28T20:21:44;4.40;;;1.40;;
74670;SDS011;63196;39.564;2.628;2023-04-28T20:24:09;4.20;;;1.20;;
74670;SDS011;63196;39.564;2.628;2023-04-28T20:26:36;3.10;;;1.20;;
74670;SDS011;63196;39.564;2.628;2023-04-28T20:29:01;4.20;;;1.30;;
74670;SDS011;63196;39.564;2.628;2023-04-28T20:31:27;4.40;;;1.10;;
74670;SDS011;63196;39.564;2.628;2023-04-28T20:33:52;4.70;;;1.20;;
74670;SDS011;63196;39.564;2.628;2023-04-28T20:36:18;3.50;;;0.90;;
74670;SDS011;63196;39.564;2.628;2023-04-28T20:38:43;2.70;;;1.00;;
74670;SDS011;63196;39.564;2.628;2023-04-28T20:41:09;4.10;;;1.40;;
74670;SDS011;63196;39.564;2.628;2023-04-28T20:43:35;3.90;;;1.20;;
74670;SDS011;63196;39.564;2.628;2023-04-28T20:46:00;2.90;;;1.20;;
74670;SDS011;63196;39.564;2.628;2023-04-28T20:48:26;2.70;;;1.10;;
74670;SDS011;63196;39.564;2.628;2023-04-28T20:50:53;3.90;;;1.40;;
74670;SDS011;63196;39.564;2.628;2023-04-28T20:53:19;3.60;;;1.20;;
74670;SDS011;63196;39.564;2.628;2023-04-28T20:55:45;3.90;;;1.30;;
74670;SDS011;63196;39.564;2.628;2023-04-28T20:58:10;3.80;;;1.30;;
74670;SDS011;63196;39.564;2.628;2023-04-28T21:00:36;3.20;;;1.30;;
74670;SDS011;63196;39.564;2.628;2023-04-28T21:03:04;3.10;;;1.00;;
74670;SDS011;63196;39.564;2.628;2023-04-28T21:05:29;2.80;;;1.10;;
74670;SDS011;63196;39.564;2.628;2023-04-28T21:07:55;3.10;;;1.10;;
74670;SDS011;63196;39.564;2.628;2023-04-28T21:10:20;3.70;;;1.20;;
74670;SDS011;63196;39.564;2.628;2023-04-28T21:12:46;3.20;;;1.20;;
74670;SDS011;63196;39.564;2.628;2023-04-28T21:15:11;5.90;;;1.20;;
74670;SDS011;63196;39.564;2.628;2023-04-28T21:17:37;3.60;;;1.40;;
74670;SDS011;63196;39.564;2.628;2023-04-28T21:20:02;2.90;;;1.10;;
74670;SDS011;63196;39.564;2.628;2023-04-28T21:22:28;4.30;;;1.20;;
74670;SDS011;63196;39.564;2.628;2023-04-28T21:24:54;3.70;;;1.30;;
74670;SDS011;63196;39.564;2.628;2023-04-28T21:27:19;3.90;;;1.10;;
74670;SDS011;63196;39.564;2.628;2023-04-28T21:29:45;4.50;;;1.40;;
74670;SDS011;63196;39.564;2.628;2023-04-28T21:32:10;3.10;;;1.40;;
74670;SDS011;63196;39.564;2.628;2023-04-28T21:34:37;3.50;;;1.40;;
74670;SDS011;63196;39.564;2.628;2023-04-28T21:37:02;3.90;;;1.30;;
74670;SDS011;63196;39.564;2.628;2023-04-28T21:39:28;3.60;;;1.10;;
74670;SDS011;63196;39.564;2.628;2023-04-28T21:41:53;5.90;;;1.10;;
74670;SDS011;63196;39.564;2.628;2023-04-28T21:44:18;5.40;;;1.00;;
74670;SDS011;63196;39.564;2.628;2023-04-28T21:46:44;2.40;;;0.90;;
74670;SDS011;63196;39.564;2.628;2023-04-28T21:49:09;2.90;;;1.10;;
74670;SDS011;63196;39.564;2.628;2023-04-28T21:51:35;2.70;;;0.90;;
74670;SDS011;63196;39.564;2.628;2023-04-28T21:54:01;3.00;;;1.10;;
74670;SDS011;63196;39.564;2.628;2023-04-28T21:56:27;3.00;;;1.10;;
74670;SDS011;63196;39.564;2.628;2023-04-28T21:58:52;3.80;;;1.00;;
74670;SDS011;63196;39.564;2.628;2023-04-28T22:01:18;4.00;;;1.00;;
74670;SDS011;63196;39.564;2.628;2023-04-28T22:03:43;2.90;;;1.00;;
74670;SDS011;63196;39.564;2.628;2023-04-28T22:06:09;6.30;;;1.50;;
74670;SDS011;63196;39.564;2.628;2023-04-28T22:08:35;4.40;;;1.60;;
74670;SDS011;63196;39.564;2.628;2023-04-28T22:11:00;4.90;;;1.70;;
74670;SDS011;63196;39.564;2.628;2023-04-28T22:13:26;4.50;;;1.80;;
74670;SDS011;63196;39.564;2.628;2023-04-28T22:15:51;4.60;;;1.60;;
74670;SDS011;63196;39.564;2.628;2023-04-28T22:18:16;4.30;;;1.20;;
74670;SDS011;63196;39.564;2.628;2023-04-28T22:20:42;4.40;;;1.40;;
74670;SDS011;63196;39.564;2.628;2023-04-28T22:23:08;3.60;;;1.30;;
74670;SDS011;63196;39.564;2.628;2023-04-28T22:25:33;3.70;;;1.50;;
74670;SDS011;63196;39.564;2.628;2023-04-28T22:27:59;3.60;;;1.10;;
74670;SDS011;63196;39.564;2.628;2023-04-28T22:30:24;4.40;;;1.20;;
74670;SDS011;63196;39.564;2.628;2023-04-28T22:32:49;5.80;;;1.30;;
74670;SDS011;63196;39.564;2.628;2023-04-28T22:35:15;3.10;;;1.00;;
74670;SDS011;63196;39.564;2.628;2023-04-28T22:37:41;4.60;;;0.90;;
74670;SDS011;63196;39.564;2.628;2023-04-28T22:40:07;2.70;;;1.00;;
74670;SDS011;63196;39.564;2.628;2023-04-28T22:42:36;3.70;;;1.20;;
74670;SDS011;63196;39.564;2.628;2023-04-28T22:45:02;3.70;;;1.00;;
74670;SDS011;63196;39.564;2.628;2023-04-28T22:47:28;2.60;;;0.90;;
74670;SDS011;63196;39.564;2.628;2023-04-28T22:49:54;3.30;;;0.90;;
74670;SDS011;63196;39.564;2.628;2023-04-28T22:52:19;2.70;;;1.20;;
74670;SDS011;63196;39.564;2.628;2023-04-28T22:54:46;2.50;;;0.80;;
74670;SDS011;63196;39.564;2.628;2023-04-28T22:57:11;3.40;;;1.10;;
74670;SDS011;63196;39.564;2.628;2023-04-28T22:59:36;2.10;;;0.90;;
74670;SDS011;63196;39.564;2.628;2023-04-28T23:02:02;3.50;;;1.20;;
74670;SDS011;63196;39.564;2.628;2023-04-28T23:04:27;3.60;;;0.90;;
74670;SDS011;63196;39.564;2.628;2023-04-28T23:06:53;2.60;;;0.80;;
74670;SDS011;63196;39.564;2.628;2023-04-28T23:09:18;2.40;;;0.90;;
74670;SDS011;63196;39.564;2.628;2023-04-28T23:11:44;2.60;;;1.00;;
74670;SDS011;63196;39.564;2.628;2023-04-28T23:14:10;1.80;;;0.60;;
74670;SDS011;63196;39.564;2.628;2023-04-28T23:16:35;5.20;;;1.20;;
74670;SDS011;63196;39.564;2.628;2023-04-28T23:19:01;2.60;;;0.90;;
74670;SDS011;63196;39.564;2.628;2023-04-28T23:21:27;1.90;;;0.70;;
74670;SDS011;63196;39.564;2.628;2023-04-28T23:23:53;2.40;;;0.80;;
74670;SDS011;63196;39.564;2.628;2023-04-28T23:26:18;2.60;;;1.00;;
74670;SDS011;63196;39.564;2.628;2023-04-28T23:28:45;3.40;;;1.10;;
74670;SDS011;63196;39.564;2.628;2023-04-28T23:31:10;3.60;;;0.90;;
74670;SDS011;63196;39.564;2.628;2023-04-28T23:33:37;4.30;;;1.40;;
74670;SDS011;63196;39.564;2.628;2023-04-28T23:36:02;4.20;;;1.20;;
74670;SDS011;63196;39.564;2.628;2023-04-28T23:38:28;5.20;;;1.60;;
74670;SDS011;63196;39.564;2.628;2023-04-28T23:40:53;5.70;;;1.40;;
74670;SDS011;63196;39.564;2.628;2023-04-28T23:43:19;4.30;;;1.20;;
74670;SDS011;63196;39.564;2.628;2023-04-28T23:45:44;3.30;;;1.00;;
74670;SDS011;63196;39.564;2.628;2023-04-28T23:48:10;3.60;;;1.10;;
74670;SDS011;63196;39.564;2.628;2023-04-28T23:50:36;4.10;;;1.20;;
74670;SDS011;63196;39.564;2.628;2023-04-28T23:53:02;4.90;;;1.20;;
74670;SDS011;63196;39.564;2.628;2023-04-28T23:55:27;3.30;;;1.30;;
74670;SDS011;63196;39.564;2.628;2023-04-28T23:57:53;3.00;;;1.00;;
